Time;durP1;ratioP1;P1;durP2;ratioP2;P2;SDS_P1;SDS_P2;PMS_P1;PMS_P2;Temp;Humidity;BMP_temperature;BMP_pressure;BME280_temperature;BME280_humidity;BME280_pressure;Samples;Min_cycle;Max_cycle;Signal;HPM_P1;HPM_P2
2023/01/06 00:01:36;;;;;;;22.20;7.07;;;12.70;99.90;;;;;;5063497;27;20867;-62
2023/01/06 00:04:04;;;;;;;32.20;8.70;;;12.70;99.90;;;;;;5065991;28;20487;-62
2023/01/06 00:06:32;;;;;;;17.33;6.30;;;12.80;99.90;;;;;;5057587;28;21365;-62
2023/01/06 00:09:01;;;;;;;22.93;8.50;;;14.80;99.90;;;;;;5050595;28;20474;-62
2023/01/06 00:11:28;;;;;;;26.20;6.60;;;12.80;99.90;;;;;;5049751;28;20552;-62
2023/01/06 00:13:55;;;;;;;25.30;7.30;;;12.80;99.90;;;;;;5070055;27;20697;-62
2023/01/06 00:16:22;;;;;;;33.67;8.30;;;12.90;99.90;;;;;;5062127;28;20533;-62
2023/01/06 00:18:49;;;;;;;22.07;5.80;;;12.90;99.90;;;;;;5076064;28;20483;-62
2023/01/06 00:21:17;;;;;;;22.23;6.87;;;12.90;99.90;;;;;;5045129;28;20474;-62
2023/01/06 00:23:44;;;;;;;15.20;5.63;;;;;;;;;;5053249;28;21044;-62
2023/01/06 00:26:11;;;;;;;23.63;6.30;;;;;;;;;;5070360;28;20561;-62
2023/01/06 00:28:39;;;;;;;11.37;4.80;;;;;;;;;;5036273;28;20506;-62
2023/01/06 00:31:07;;;;;;;26.47;9.23;;;12.80;99.90;;;;;;5053142;28;22084;-62
2023/01/06 00:33:34;;;;;;;18.03;5.47;;;12.70;99.90;;;;;;5051303;28;20558;-62
2023/01/06 00:36:01;;;;;;;25.93;8.90;;;;;;;;;;5049114;28;20552;-62
2023/01/06 00:38:29;;;;;;;24.37;7.07;;;12.70;99.90;;;;;;5080930;27;20474;-62
2023/01/06 00:40:56;;;;;;;24.63;6.90;;;12.60;99.90;;;;;;5061094;28;20488;-62
2023/01/06 00:43:23;;;;;;;28.00;8.03;;;12.80;99.90;;;;;;5066594;28;20519;-62
2023/01/06 00:45:50;;;;;;;26.43;8.80;;;12.80;99.90;;;;;;5072878;28;20470;-62
2023/01/06 00:48:17;;;;;;;26.07;7.30;;;12.90;99.90;;;;;;5053325;28;21193;-62
2023/01/06 00:50:44;;;;;;;18.87;4.87;;;12.80;99.90;;;;;;5073141;28;20513;-62
2023/01/06 00:53:11;;;;;;;22.63;8.13;;;;;;;;;;5068725;28;20468;-62
2023/01/06 00:55:39;;;;;;;34.47;7.43;;;12.90;99.90;;;;;;5063090;28;20490;-62
2023/01/06 00:58:06;;;;;;;30.27;10.23;;;12.90;99.90;;;;;;5032101;28;20498;-62
2023/01/06 01:00:33;;;;;;;22.90;6.97;;;13.00;99.90;;;;;;5081966;28;20479;-62
2023/01/06 01:02:59;;;;;;;24.07;7.67;;;13.00;99.90;;;;;;5072484;28;20486;-62
2023/01/06 01:05:26;;;;;;;21.63;7.40;;;;;;;;;;5053936;28;20884;-61
2023/01/06 01:07:53;;;;;;;22.87;7.70;;;13.00;99.90;;;;;;5052077;28;20486;-62
2023/01/06 01:10:20;;;;;;;23.27;8.77;;;12.90;99.90;;;;;;5062355;28;20478;-62
2023/01/06 01:12:48;;;;;;;17.53;6.20;;;12.90;99.90;;;;;;5090337;27;20469;-62
2023/01/06 01:15:15;;;;;;;31.73;9.13;;;;;;;;;;5052210;28;21103;-62
2023/01/06 01:17:42;;;;;;;25.17;6.07;;;;;;;;;;5059610;28;20720;-63
2023/01/06 01:20:10;;;;;;;36.13;10.43;;;12.80;99.90;;;;;;5057287;28;20472;-63
2023/01/06 01:22:36;;;;;;;20.47;5.40;;;13.00;99.90;;;;;;5049210;28;20475;-61
2023/01/06 01:25:03;;;;;;;29.73;8.27;;;12.80;99.90;;;;;;5043586;28;20956;-62
2023/01/06 01:27:30;;;;;;;22.07;5.90;;;12.70;99.90;;;;;;5073503;28;20869;-62
2023/01/06 01:29:58;;;;;;;28.10;7.40;;;12.60;99.90;;;;;;5036899;28;20511;-62
2023/01/06 01:32:25;;;;;;;24.67;6.50;;;;;;;;;;5067654;28;20478;-62
2023/01/06 01:34:52;;;;;;;26.73;7.33;;;;;;;;;;5073131;28;21062;-62
2023/01/06 01:37:19;;;;;;;24.80;6.30;;;12.40;99.90;;;;;;5065974;28;20732;-62
2023/01/06 01:39:46;;;;;;;21.40;6.07;;;12.50;99.90;;;;;;5054271;28;20483;-62
2023/01/06 01:42:16;;;;;;;25.83;9.03;;;;;;;;;;5045397;28;21069;-62
2023/01/06 01:45:02;;;;;;;17.70;5.23;;;12.50;99.90;;;;;;5071625;28;20462;-62
2023/01/06 01:47:32;;;;;;;24.23;6.33;;;;;;;;;;5050163;28;20475;-62
2023/01/06 01:50:00;;;;;;;38.17;7.27;;;;;;;;;;5051181;28;20566;-62
2023/01/06 01:52:28;;;;;;;27.83;7.87;;;12.50;99.90;;;;;;5074820;28;20458;-62
2023/01/06 01:54:56;;;;;;;26.20;7.67;;;12.30;99.90;;;;;;5059622;28;20482;-62
2023/01/06 01:57:27;;;;;;;25.47;5.73;;;12.20;99.90;;;;;;5063043;27;20893;-62
2023/01/06 01:59:54;;;;;;;20.80;6.10;;;12.30;99.90;;;;;;5078474;28;20514;-62
2023/01/06 02:02:23;;;;;;;22.53;7.37;;;12.30;99.90;;;;;;5068253;28;20474;-62
2023/01/06 02:04:52;;;;;;;23.93;5.50;;;;;;;;;;5050500;27;20480;-62
2023/01/06 02:07:19;;;;;;;28.20;6.57;;;;;;;;;;5071218;27;20482;-62
2023/01/06 02:09:54;;;;;;;17.23;6.77;;;12.20;99.90;;;;;;5035279;28;20519;-62
2023/01/06 02:12:21;;;;;;;22.80;6.73;;;;;;;;;;5070620;28;20850;-62
2023/01/06 02:14:48;;;;;;;28.87;6.90;;;;;;;;;;5055007;28;20477;-62
2023/01/06 02:17:30;;;;;;;26.33;7.60;;;;;;;;;;5059898;28;20478;-62
2023/01/06 02:20:29;;;;;;;28.47;7.47;;;12.20;99.90;;;;;;5078296;27;20558;-62
2023/01/06 02:23:24;;;;;;;30.40;6.87;;;12.10;99.90;;;;;;5061966;27;20500;-62
2023/01/06 02:26:28;;;;;;;19.67;5.63;;;12.10;99.90;;;;;;5034245;28;21060;-63
2023/01/06 02:29:35;;;;;;;29.60;6.27;;;12.10;99.90;;;;;;5047783;27;20494;-62
2023/01/06 02:32:14;;;;;;;39.07;7.80;;;12.00;99.90;;;;;;5043273;28;20491;-62
2023/01/06 02:34:51;;;;;;;21.83;6.03;;;12.10;99.90;;;;;;5040013;28;20487;-62
2023/01/06 02:37:42;;;;;;;30.93;6.87;;;12.10;99.90;;;;;;5034200;28;20485;-62
2023/01/06 02:40:13;;;;;;;25.03;7.70;;;;;;;;;;5053209;28;20843;-62
2023/01/06 02:42:45;;;;;;;29.57;6.73;;;12.20;99.90;;;;;;5045631;28;20495;-62
2023/01/06 02:45:18;;;;;;;31.73;7.63;;;;;;;;;;5044731;28;20485;-62
2023/01/06 02:47:56;;;;;;;20.00;3.87;;;12.20;99.90;;;;;;5070415;28;20545;-62
2023/01/06 02:50:33;;;;;;;35.97;10.60;;;12.10;99.90;;;;;;5078256;28;21254;-63
2023/01/06 02:53:07;;;;;;;22.10;6.10;;;12.10;99.90;;;;;;5050128;28;20482;-63
2023/01/06 02:55:37;;;;;;;16.13;5.07;;;;;;;;;;5074068;28;21093;-62
2023/01/06 02:58:08;;;;;;;35.57;10.30;;;;;;;;;;5057069;28;20478;-62
2023/01/06 03:00:39;;;;;;;15.80;5.27;;;12.20;99.90;;;;;;5080498;28;20499;-62
2023/01/06 03:03:12;;;;;;;34.57;8.73;;;12.20;99.90;;;;;;5047598;28;20607;-62
2023/01/06 03:05:41;;;;;;;27.37;6.20;;;12.20;99.90;;;;;;5067474;28;20812;-61
2023/01/06 03:08:10;;;;;;;28.10;9.40;;;;;;;;;;5053824;28;20475;-62
2023/01/06 03:10:39;;;;;;;19.67;5.30;;;12.10;99.90;;;;;;5050323;28;20928;-61
2023/01/06 03:13:12;;;;;;;34.73;7.70;;;12.20;99.90;;;;;;5076590;28;20811;-62
2023/01/06 03:15:39;;;;;;;20.80;5.70;;;12.10;99.90;;;;;;5057649;28;20790;-62
2023/01/06 03:18:07;;;;;;;31.33;8.37;;;12.20;99.90;;;;;;5077119;28;20482;-62
2023/01/06 03:20:34;;;;;;;16.40;4.97;;;12.20;99.90;;;;;;5048588;28;20491;-62
2023/01/06 03:23:01;;;;;;;30.57;8.00;;;12.20;99.90;;;;;;5075607;28;20494;-62
2023/01/06 03:25:28;;;;;;;30.37;7.07;;;12.20;99.90;;;;;;5049847;28;20486;-61
2023/01/06 03:27:55;;;;;;;26.90;6.97;;;;;;;;;;5073127;28;20483;-61
2023/01/06 03:30:22;;;;;;;34.47;8.23;;;12.10;99.90;;;;;;5056948;28;20489;-61
2023/01/06 03:32:58;;;;;;;23.73;6.00;;;12.10;99.90;;;;;;5070806;28;20482;-61
2023/01/06 03:35:38;;;;;;;21.90;5.93;;;12.10;99.90;;;;;;5055445;28;20909;-62
2023/01/06 03:38:12;;;;;;;34.47;8.60;;;;;;;;;;5050372;28;20479;-62
2023/01/06 03:40:43;;;;;;;20.53;4.97;;;12.10;99.90;;;;;;5054049;28;20502;-61
2023/01/06 03:43:15;;;;;;;29.00;8.20;;;;;;;;;;5072181;28;21069;-61
2023/01/06 03:46:15;;;;;;;19.23;4.20;;;12.10;99.90;;;;;;5072154;28;20477;-61
2023/01/06 03:48:53;;;;;;;12.03;3.60;;;12.10;99.90;;;;;;5056992;28;20574;-61
2023/01/06 03:51:48;;;;;;;18.50;6.00;;;12.10;99.90;;;;;;5066095;28;20745;-61
2023/01/06 03:54:26;;;;;;;22.27;7.20;;;12.10;99.90;;;;;;5053643;28;21040;-61
2023/01/06 03:56:59;;;;;;;18.80;5.27;;;12.00;99.90;;;;;;5071303;28;20493;-61
2023/01/06 03:59:29;;;;;;;29.03;7.13;;;12.00;99.90;;;;;;5070746;28;20485;-61
2023/01/06 04:01:57;;;;;;;18.17;5.83;;;12.00;99.90;;;;;;5065886;28;20488;-61
2023/01/06 04:04:24;;;;;;;15.50;5.13;;;11.90;99.90;;;;;;5061177;28;20477;-61
2023/01/06 04:06:52;;;;;;;23.07;5.63;;;11.90;99.90;;;;;;5067667;28;20483;-61
2023/01/06 04:09:19;;;;;;;25.60;6.83;;;11.80;99.90;;;;;;5050083;28;20495;-61
2023/01/06 04:14:30;;;;;;;23.90;5.20;;;11.80;99.90;;;;;;5053144;28;20501;-61
2023/01/06 04:16:57;;;;;;;21.90;5.27;;;;;;;;;;5058419;28;20474;-61
2023/01/06 04:19:24;;;;;;;30.63;7.67;;;11.80;99.90;;;;;;5068190;28;20889;-60
2023/01/06 04:21:52;;;;;;;23.17;6.30;;;;;;;;;;5077035;28;20475;-61
2023/01/06 04:24:19;;;;;;;20.80;4.73;;;11.90;99.90;;;;;;5064885;28;20485;-61
2023/01/06 04:26:46;;;;;;;33.23;5.33;;;;;;;;;;5073394;28;20516;-61
2023/01/06 04:29:13;;;;;;;36.23;8.67;;;;;;;;;;5076388;28;20469;-61
2023/01/06 04:31:39;;;;;;;14.20;3.77;;;11.80;99.90;;;;;;5044332;28;20491;-61
2023/01/06 04:34:06;;;;;;;26.40;8.10;;;11.70;99.90;;;;;;5076636;28;20486;-62
2023/01/06 04:36:33;;;;;;;20.83;5.00;;;;;;;;;;5060081;28;20477;-61
2023/01/06 04:39:02;;;;;;;24.03;7.23;;;;;;;;;;5078969;27;20762;-61
2023/01/06 04:41:30;;;;;;;26.40;6.60;;;;;;;;;;5071992;28;20481;-61
2023/01/06 04:43:57;;;;;;;20.13;4.97;;;;;;;;;;5071765;28;20486;-61
2023/01/06 04:46:25;;;;;;;21.20;4.90;;;;;;;;;;5056394;28;20510;-61
2023/01/06 04:48:51;;;;;;;25.93;7.53;;;11.60;99.90;;;;;;5042238;28;21117;-61
2023/01/06 04:51:18;;;;;;;19.17;4.40;;;11.60;99.90;;;;;;5080717;28;20476;-62
2023/01/06 04:53:45;;;;;;;16.73;3.70;;;11.60;99.90;;;;;;5083430;28;20475;-61
2023/01/06 04:56:14;;;;;;;27.90;7.90;;;11.40;99.90;;;;;;5041167;28;20476;-62
2023/01/06 04:58:44;;;;;;;18.03;5.70;;;;;;;;;;5082284;28;20489;-61
2023/01/06 05:01:13;;;;;;;36.97;7.07;;;11.50;99.90;;;;;;5049223;28;20949;-61
2023/01/06 05:03:40;;;;;;;15.33;3.50;;;;;;;;;;5056270;28;20495;-61
2023/01/06 05:06:09;;;;;;;30.90;8.17;;;11.40;99.90;;;;;;5053276;28;20959;-62
2023/01/06 05:08:37;;;;;;;27.63;5.10;;;;;;;;;;5067270;28;20714;-61
2023/01/06 05:11:05;;;;;;;29.07;7.10;;;;;;;;;;5081437;28;20747;-62
2023/01/06 05:13:33;;;;;;;24.47;4.50;;;11.20;99.90;;;;;;5047695;28;20476;-61
2023/01/06 05:16:00;;;;;;;20.73;5.20;;;;;;;;;;5084855;28;20490;-61
2023/01/06 05:18:27;;;;;;;26.03;5.67;;;11.20;99.90;;;;;;5050715;28;20483;-61
2023/01/06 05:20:54;;;;;;;26.13;6.70;;;11.10;99.90;;;;;;5064785;28;20985;-61
2023/01/06 05:23:21;;;;;;;23.20;5.13;;;11.20;99.90;;;;;;5061705;28;20535;-61
2023/01/06 05:25:51;;;;;;;23.67;5.83;;;;;;;;;;5067770;28;20475;-61
2023/01/06 05:28:18;;;;;;;20.10;4.30;;;11.10;99.90;;;;;;5083283;28;21067;-61
2023/01/06 05:30:46;;;;;;;23.17;5.00;;;;;;;;;;5050846;28;20907;-61
2023/01/06 05:33:14;;;;;;;27.63;7.87;;;;;;;;;;5026988;28;20526;-61
2023/01/06 05:35:41;;;;;;;25.27;4.37;;;11.10;99.90;;;;;;5082547;28;20495;-61
2023/01/06 05:38:07;;;;;;;32.03;8.43;;;11.00;99.90;;;;;;5039937;28;20482;-61
2023/01/06 05:40:35;;;;;;;31.10;6.43;;;;;;;;;;5075801;28;20482;-61
2023/01/06 05:43:01;;;;;;;38.80;9.07;;;10.90;99.90;;;;;;5044341;28;20476;-61
2023/01/06 05:45:28;;;;;;;21.23;5.53;;;10.90;99.90;;;;;;5050556;28;20966;-62
2023/01/06 05:47:57;;;;;;;20.83;4.43;;;10.90;99.90;;;;;;5078120;28;20487;-62
2023/01/06 05:50:24;;;;;;;24.83;7.40;;;10.80;99.90;;;;;;5043198;28;20478;-61
2023/01/06 05:52:51;;;;;;;22.17;7.03;;;10.80;99.90;;;;;;5082953;28;20487;-61
2023/01/06 05:55:18;;;;;;;19.10;3.93;;;10.90;99.90;;;;;;5073473;28;20547;-61
2023/01/06 05:57:45;;;;;;;17.03;3.30;;;;;;;;;;5062141;28;20489;-61
2023/01/06 06:00:12;;;;;;;25.60;8.23;;;;;;;;;;5062027;28;20484;-61
2023/01/06 06:02:39;;;;;;;12.80;3.37;;;10.90;99.90;;;;;;5052793;28;20473;-61
2023/01/06 06:05:08;;;;;;;19.73;7.53;;;;;;;;;;5072021;28;20495;-62
2023/01/06 06:07:35;;;;;;;21.97;4.83;;;12.60;99.90;;;;;;5066407;28;20870;-61
2023/01/06 06:10:01;;;;;;;21.10;6.87;;;10.90;99.90;;;;;;5068657;28;21001;-61
2023/01/06 06:12:28;;;;;;;22.17;5.57;;;11.00;99.90;;;;;;5068824;28;20563;-61
2023/01/06 06:14:55;;;;;;;12.60;4.63;;;;;;;;;;5049975;28;20483;-61
2023/01/06 06:17:23;;;;;;;19.13;4.77;;;;;;;;;;5077863;28;20478;-61
2023/01/06 06:19:49;;;;;;;13.27;3.57;;;11.00;99.90;;;;;;5053713;28;20481;-61
2023/01/06 06:22:18;;;;;;;17.70;6.30;;;;;;;;;;5071669;28;20914;-61
2023/01/06 06:24:44;;;;;;;16.30;3.30;;;11.00;99.90;;;;;;5059186;28;20493;-61
2023/01/06 06:27:11;;;;;;;28.57;6.90;;;11.00;99.90;;;;;;5077501;28;21028;-61
2023/01/06 06:29:38;;;;;;;20.90;4.30;;;11.00;99.90;;;;;;5068716;28;20514;-61
2023/01/06 06:32:05;;;;;;;23.33;9.07;;;11.00;99.90;;;;;;5052678;28;20473;-61
2023/01/06 06:34:31;;;;;;;17.57;4.90;;;11.10;99.90;;;;;;5065403;28;20485;-61
2023/01/06 06:36:58;;;;;;;13.70;4.93;;;11.10;99.90;;;;;;5055586;28;20528;-61
2023/01/06 06:39:26;;;;;;;28.30;6.63;;;11.10;99.90;;;;;;5051829;28;20491;-61
2023/01/06 06:41:52;;;;;;;35.63;5.77;;;11.10;99.90;;;;;;5055970;28;20850;-61
2023/01/06 06:44:19;;;;;;;15.17;5.00;;;;;;;;;;5055260;28;20593;-61
2023/01/06 06:46:46;;;;;;;23.37;6.07;;;11.10;99.90;;;;;;5054909;28;20476;-61
2023/01/06 06:49:13;;;;;;;29.07;8.10;;;11.00;99.90;;;;;;5054485;28;20518;-60
2023/01/06 06:51:40;;;;;;;14.30;4.50;;;;;;;;;;5052735;28;20475;-61
2023/01/06 06:54:07;;;;;;;27.13;7.67;;;;;;;;;;5054962;28;20471;-61
2023/01/06 06:56:35;;;;;;;25.47;5.37;;;;;;;;;;5047016;28;20513;-61
2023/01/06 06:59:02;;;;;;;43.50;10.03;;;11.00;99.90;;;;;;5069761;28;20507;-61
2023/01/06 07:01:30;;;;;;;24.53;5.63;;;11.10;99.90;;;;;;5070957;28;21129;-61
2023/01/06 07:03:57;;;;;;;21.47;5.90;;;11.10;99.90;;;;;;5062857;28;20494;-61
2023/01/06 07:06:25;;;;;;;19.03;4.83;;;11.10;99.90;;;;;;5062938;28;20489;-61
2023/01/06 07:08:52;;;;;;;30.87;6.50;;;11.10;99.90;;;;;;5075930;28;20529;-61
2023/01/06 07:11:18;;;;;;;18.93;5.20;;;11.10;99.90;;;;;;5060903;28;20481;-61
2023/01/06 07:13:46;;;;;;;30.40;6.80;;;11.20;99.90;;;;;;5067482;28;20484;-61
2023/01/06 07:16:13;;;;;;;24.63;6.60;;;11.20;99.90;;;;;;5061219;28;21373;-61
2023/01/06 07:18:40;;;;;;;20.53;4.87;;;11.10;99.90;;;;;;5041792;28;20493;-61
2023/01/06 07:21:07;;;;;;;43.73;9.50;;;11.00;99.90;;;;;;5067989;28;20480;-61
2023/01/06 07:23:34;;;;;;;32.90;5.57;;;11.00;99.90;;;;;;5074813;28;20476;-61
2023/01/06 07:26:02;;;;;;;26.83;6.97;;;11.00;99.90;;;;;;5042771;28;20567;-61
2023/01/06 07:28:30;;;;;;;24.23;6.10;;;11.00;99.90;;;;;;5058834;28;20486;-61
2023/01/06 07:30:58;;;;;;;21.87;5.83;;;11.00;99.90;;;;;;5070244;28;20470;-61
2023/01/06 07:33:25;;;;;;;25.73;4.57;;;10.90;99.90;;;;;;5058487;28;20484;-61
2023/01/06 07:35:56;;;;;;;24.83;6.70;;;;;;;;;;5043193;28;20479;-61
2023/01/06 07:38:23;;;;;;;24.33;5.50;;;;;;;;;;5071314;28;20907;-62
2023/01/06 07:40:50;;;;;;;28.00;6.67;;;10.90;99.90;;;;;;5068581;28;20700;-61
2023/01/06 07:43:16;;;;;;;48.13;8.33;;;10.90;99.90;;;;;;5075153;28;20483;-62
2023/01/06 07:45:45;;;;;;;21.40;5.73;;;10.90;99.90;;;;;;5039168;28;20914;-61
2023/01/06 07:48:13;;;;;;;35.47;6.97;;;10.90;99.90;;;;;;5049794;28;20496;-61
2023/01/06 07:50:40;;;;;;;14.73;4.03;;;10.90;99.90;;;;;;5069648;28;20493;-61
2023/01/06 07:53:06;;;;;;;45.40;11.33;;;10.80;99.90;;;;;;5062421;28;20467;-62
2023/01/06 07:55:33;;;;;;;21.70;5.67;;;;;;;;;;5057608;28;20484;-61
2023/01/06 07:58:04;;;;;;;30.47;8.47;;;10.80;99.90;;;;;;5082702;28;20477;-61
2023/01/06 08:00:31;;;;;;;26.00;6.03;;;10.80;99.90;;;;;;5065429;28;21316;-61
2023/01/06 08:02:58;;;;;;;23.60;6.20;;;;;;;;;;5061193;28;20501;-62
2023/01/06 08:05:26;;;;;;;24.13;5.73;;;10.90;99.90;;;;;;5080277;28;20490;-62
2023/01/06 08:07:53;;;;;;;25.10;4.93;;;;;;;;;;5063859;28;20845;-62
2023/01/06 08:10:20;;;;;;;33.60;8.13;;;10.90;99.90;;;;;;5063022;28;20481;-61
2023/01/06 08:12:46;;;;;;;19.53;5.33;;;10.90;99.90;;;;;;5060932;28;20482;-61
2023/01/06 08:15:13;;;;;;;40.77;8.87;;;;;;;;;;5084176;28;21026;-61
2023/01/06 08:17:40;;;;;;;26.53;6.10;;;;;;;;;;5075673;28;20481;-61
2023/01/06 08:20:08;;;;;;;35.80;9.73;;;;;;;;;;5053408;28;20506;-61
2023/01/06 08:22:36;;;;;;;23.63;5.43;;;;;;;;;;5058332;28;20500;-61
2023/01/06 08:25:03;;;;;;;97.77;11.90;;;;;;;;;;5073182;28;20475;-61
2023/01/06 08:27:30;;;;;;;30.77;7.60;;;10.90;99.90;;;;;;5064769;28;20491;-61
2023/01/06 08:29:57;;;;;;;25.63;6.00;;;10.90;99.90;;;;;;5074188;28;20473;-60
2023/01/06 08:32:24;;;;;;;22.20;5.63;;;;;;;;;;5057915;28;20494;-61
2023/01/06 08:34:50;;;;;;;62.97;8.17;;;10.90;99.90;;;;;;5057595;28;20491;-61
2023/01/06 08:37:17;;;;;;;31.27;6.37;;;10.90;99.90;;;;;;5057863;28;20893;-61
2023/01/06 08:39:46;;;;;;;26.40;6.20;;;10.90;99.90;;;;;;5057700;28;21007;-61
2023/01/06 08:42:13;;;;;;;30.53;7.80;;;10.90;99.90;;;;;;5057014;28;20479;-61
2023/01/06 08:44:39;;;;;;;20.97;4.53;;;10.90;99.90;;;;;;5058452;28;20505;-61
2023/01/06 08:47:06;;;;;;;40.60;10.33;;;10.90;99.90;;;;;;5056980;28;20479;-61
2023/01/06 08:49:33;;;;;;;32.27;7.20;;;10.90;99.90;;;;;;5057846;28;20640;-60
2023/01/06 08:51:59;;;;;;;29.37;8.97;;;10.90;99.90;;;;;;5071010;28;20869;-61
2023/01/06 08:54:28;;;;;;;23.90;5.30;;;10.90;99.90;;;;;;5056879;28;20834;-61
2023/01/06 08:56:56;;;;;;;29.67;5.67;;;10.80;99.90;;;;;;5075864;28;20558;-61
2023/01/06 08:59:23;;;;;;;30.57;6.60;;;;;;;;;;5053941;28;20495;-61
2023/01/06 09:01:50;;;;;;;32.80;7.80;;;10.90;99.90;;;;;;5049210;28;20497;-61
2023/01/06 09:04:17;;;;;;;22.23;4.50;;;10.90;99.90;;;;;;5073396;28;20494;-61
2023/01/06 09:06:46;;;;;;;21.87;4.07;;;10.90;99.90;;;;;;5065312;28;20494;-62
2023/01/06 09:09:13;;;;;;;36.30;8.20;;;11.00;99.90;;;;;;5068484;28;20948;-61
2023/01/06 09:11:41;;;;;;;20.50;4.87;;;11.00;99.90;;;;;;5073970;28;20495;-61
2023/01/06 09:14:09;;;;;;;40.47;7.77;;;11.00;99.90;;;;;;5045149;28;20989;-61
2023/01/06 09:16:36;;;;;;;29.43;5.90;;;11.10;99.90;;;;;;5079239;28;20823;-62
2023/01/06 09:19:03;;;;;;;39.20;9.53;;;;;;;;;;5061161;28;21041;-62
2023/01/06 09:21:30;;;;;;;24.67;5.10;;;;;;;;;;5065785;28;20485;-62
2023/01/06 09:23:57;;;;;;;22.13;5.03;;;11.20;99.90;;;;;;5064441;28;20510;-62
2023/01/06 09:26:24;;;;;;;33.13;5.60;;;11.20;99.90;;;;;;5061245;28;21099;-61
2023/01/06 09:28:51;;;;;;;30.60;5.73;;;;;;;;;;5079762;28;21155;-61
2023/01/06 09:31:19;;;;;;;24.50;4.23;;;;;;;;;;5050598;28;20475;-61
2023/01/06 09:33:46;;;;;;;23.83;6.50;;;11.40;99.90;;;;;;5076860;28;21015;-61
2023/01/06 09:36:13;;;;;;;23.83;6.80;;;11.30;99.90;;;;;;5048103;28;20472;-61
2023/01/06 09:38:40;;;;;;;22.53;5.20;;;11.30;99.90;;;;;;5057474;28;20478;-61
2023/01/06 09:41:22;;;;;;;35.97;9.40;;;;;;;;;;5060546;28;21029;-62
2023/01/06 09:43:53;;;;;;;32.33;7.53;;;11.40;99.90;;;;;;5055455;28;21138;-61
2023/01/06 09:46:23;;;;;;;19.47;4.33;;;;;;;;;;5074311;28;20469;-61
2023/01/06 09:48:58;;;;;;;41.50;6.50;;;11.50;99.90;;;;;;5037975;28;20485;-62
2023/01/06 09:51:27;;;;;;;29.53;7.20;;;11.40;99.90;;;;;;5041360;28;20478;-62
2023/01/06 09:54:00;;;;;;;26.83;5.90;;;11.30;99.90;;;;;;5058238;28;20516;-62
2023/01/06 09:56:27;;;;;;;17.20;4.80;;;11.40;99.90;;;;;;5070781;28;20525;-61
2023/01/06 09:59:01;;;;;;;30.60;6.87;;;11.50;99.90;;;;;;5033742;28;20479;-62
2023/01/06 10:01:34;;;;;;;25.63;6.40;;;;;;;;;;5080769;28;20490;-62
2023/01/06 10:04:00;;;;;;;26.50;6.37;;;11.50;99.90;;;;;;5039835;28;20787;-62
2023/01/06 10:06:32;;;;;;;21.17;4.93;;;;;;;;;;5083521;28;20489;-62
2023/01/06 10:09:05;;;;;;;33.47;6.97;;;;;;;;;;5065696;28;20475;-61
2023/01/06 10:11:45;;;;;;;24.93;5.13;;;11.50;99.90;;;;;;5045668;28;20896;-62
2023/01/06 10:14:18;;;;;;;19.33;5.60;;;11.50;99.90;;;;;;5056325;28;21003;-62
2023/01/06 10:16:54;;;;;;;27.53;5.53;;;;;;;;;;5054957;28;20500;-62
2023/01/06 10:19:28;;;;;;;22.07;5.53;;;;;;;;;;5048138;28;20479;-61
2023/01/06 10:22:03;;;;;;;24.13;5.30;;;11.60;99.90;;;;;;5046679;28;20841;-62
2023/01/06 10:24:46;;;;;;;14.33;3.73;;;11.60;99.90;;;;;;5056126;28;20510;-62
2023/01/06 10:27:27;;;;;;;25.63;6.47;;;9.90;99.90;;;;;;5041163;28;20482;-62
2023/01/06 10:29:56;;;;;;;26.73;5.53;;;;;;;;;;5067338;28;20481;-62
2023/01/06 10:32:28;;;;;;;28.63;6.80;;;11.60;99.90;;;;;;5056401;28;20537;-62
2023/01/06 10:34:56;;;;;;;25.07;6.47;;;;;;;;;;5061404;28;20539;-61
2023/01/06 10:37:25;;;;;;;28.73;6.27;;;11.60;99.90;;;;;;5057773;28;21538;-62
2023/01/06 10:39:56;;;;;;;23.67;5.07;;;;;;;;;;5063558;28;20869;-61
2023/01/06 10:45:14;;;;;;;27.60;6.27;;;11.80;99.90;;;;;;5034409;28;20482;-61
2023/01/06 10:47:43;;;;;;;33.03;5.17;;;11.80;99.90;;;;;;5053226;28;20477;-61
2023/01/06 10:50:13;;;;;;;30.77;8.27;;;11.80;99.90;;;;;;5058634;28;20474;-62
2023/01/06 10:52:40;;;;;;;15.87;4.10;;;;;;;;;;5050417;28;20507;-62
2023/01/06 10:55:10;;;;;;;25.43;6.30;;;11.90;99.90;;;;;;5054247;28;20502;-61
2023/01/06 10:57:40;;;;;;;27.57;4.30;;;11.90;99.90;;;;;;5061160;28;20489;-62
2023/01/06 11:00:14;;;;;;;19.40;7.47;;;;;;;;;;5064679;28;20484;-61
2023/01/06 11:02:47;;;;;;;23.83;5.63;;;;;;;;;;5057149;28;20489;-62
2023/01/06 11:05:15;;;;;;;22.67;5.70;;;;;;;;;;5070268;28;20473;-62
2023/01/06 11:07:52;;;;;;;21.37;5.00;;;11.90;99.90;;;;;;5066845;28;20491;-61
2023/01/06 11:10:36;;;;;;;17.20;5.87;;;11.80;99.90;;;;;;5056902;28;20485;-62
2023/01/06 11:13:23;;;;;;;20.93;7.47;;;11.80;99.90;;;;;;5055158;28;20483;-62
2023/01/06 11:15:50;;;;;;;18.83;5.73;;;;;;;;;;5057060;28;20471;-62
2023/01/06 11:18:24;;;;;;;14.80;3.97;;;11.80;99.90;;;;;;5072020;28;20487;-62
2023/01/06 11:21:05;;;;;;;22.47;6.17;;;;;;;;;;5031417;28;20487;-62
2023/01/06 11:23:32;;;;;;;14.97;4.50;;;11.80;99.90;;;;;;5079422;28;20558;-62
2023/01/06 11:26:02;;;;;;;27.10;7.30;;;10.80;99.90;;;;;;5049095;28;20567;-62
2023/01/06 11:28:29;;;;;;;16.73;4.60;;;11.80;99.90;;;;;;5078847;28;20473;-62
2023/01/06 11:30:59;;;;;;;21.73;7.07;;;;;;;;;;5075977;28;20485;-62
2023/01/06 11:33:28;;;;;;;22.90;5.13;;;11.80;99.90;;;;;;5035471;28;20485;-62
2023/01/06 11:35:56;;;;;;;16.10;4.10;;;11.70;99.90;;;;;;5076105;28;20474;-62
2023/01/06 11:38:23;;;;;;;23.60;4.37;;;;;;;;;;5046808;28;20490;-61
2023/01/06 11:40:51;;;;;;;19.40;5.70;;;11.70;99.90;;;;;;5053284;28;20492;-61
2023/01/06 11:43:24;;;;;;;19.53;4.50;;;11.60;99.90;;;;;;5073550;28;21020;-61
2023/01/06 11:45:55;;;;;;;21.60;6.27;;;11.60;99.90;;;;;;5044332;28;20479;-61
2023/01/06 11:48:26;;;;;;;16.20;4.73;;;11.60;99.90;;;;;;5074017;28;20505;-62
2023/01/06 11:50:56;;;;;;;23.23;7.03;;;;;;;;;;5059969;28;20486;-61
2023/01/06 11:53:24;;;;;;;17.30;5.03;;;11.50;99.90;;;;;;5050124;28;20491;-61
2023/01/06 11:55:58;;;;;;;16.50;4.23;;;;;;;;;;5048169;28;20476;-61
2023/01/06 11:58:35;;;;;;;26.60;6.73;;;11.70;99.90;;;;;;5048896;28;20476;-61
2023/01/06 12:01:08;;;;;;;32.83;9.57;;;11.70;99.90;;;;;;5037761;28;20484;-61
2023/01/06 12:03:40;;;;;;;18.07;5.07;;;;;;;;;;5070222;28;20598;-61
2023/01/06 12:06:18;;;;;;;29.07;9.60;;;11.80;99.90;;;;;;5051659;28;20486;-61
2023/01/06 12:08:52;;;;;;;17.50;5.23;;;11.80;99.90;;;;;;5073674;28;20550;-62
2023/01/06 12:11:22;;;;;;;20.43;5.43;;;;;;;;;;5066365;28;20475;-61
2023/01/06 12:13:49;;;;;;;17.77;3.93;;;11.90;99.90;;;;;;5052174;28;20477;-61
2023/01/06 12:16:22;;;;;;;15.60;6.00;;;;;;;;;;5052197;28;20486;-62
2023/01/06 12:18:49;;;;;;;22.30;4.97;;;12.00;99.90;;;;;;5049082;28;20517;-61
2023/01/06 12:21:28;;;;;;;18.63;4.80;;;12.00;99.90;;;;;;5060841;28;20557;-62
2023/01/06 12:23:57;;;;;;;18.40;5.77;;;;;;;;;;5048330;28;20920;-62
2023/01/06 12:26:24;;;;;;;18.20;4.27;;;;;;;;;;5063661;28;20479;-61
2023/01/06 12:28:53;;;;;;;13.53;4.60;;;;;;;;;;5041651;28;20490;-62
2023/01/06 12:31:24;;;;;;;22.57;6.40;;;12.10;99.90;;;;;;5056285;28;20490;-61
2023/01/06 12:33:57;;;;;;;24.87;5.87;;;12.10;99.90;;;;;;5049599;28;20484;-61
2023/01/06 12:36:29;;;;;;;15.30;5.53;;;12.00;99.90;;;;;;5052018;28;20909;-62
2023/01/06 12:38:58;;;;;;;30.90;5.57;;;11.80;99.90;;;;;;5041342;28;20488;-61
2023/01/06 12:41:30;;;;;;;25.60;6.17;;;11.80;99.90;;;;;;5065088;28;20955;-62
2023/01/06 12:44:00;;;;;;;25.63;7.50;;;;;;;;;;5043741;28;21129;-62
2023/01/06 12:46:35;;;;;;;19.20;5.17;;;11.70;99.90;;;;;;5055061;28;20482;-62
2023/01/06 12:49:05;;;;;;;29.50;7.97;;;11.60;99.90;;;;;;5043741;28;20585;-62
2023/01/06 12:51:39;;;;;;;35.47;6.57;;;11.60;99.90;;;;;;5048540;28;20483;-62
2023/01/06 12:54:12;;;;;;;34.53;10.13;;;11.70;99.90;;;;;;5072133;28;20487;-62
2023/01/06 12:56:52;;;;;;;20.20;4.97;;;11.70;99.90;;;;;;5067548;28;20457;-61
2023/01/06 12:59:25;;;;;;;20.40;5.50;;;;;;;;;;5041397;28;20466;-62
2023/01/06 13:02:00;;;;;;;26.33;6.77;;;11.90;99.90;;;;;;5046585;28;20469;-62
2023/01/06 13:04:54;;;;;;;15.03;4.50;;;11.90;99.90;;;;;;5065068;27;20715;-62
2023/01/06 13:07:42;;;;;;;23.90;5.30;;;11.90;99.90;;;;;;5070895;27;20583;-62
2023/01/06 13:10:24;;;;;;;22.43;6.90;;;11.90;99.90;;;;;;5037735;28;21065;-61
2023/01/06 13:13:02;;;;;;;19.27;5.27;;;11.80;99.90;;;;;;5063560;28;20489;-61
2023/01/06 13:15:31;;;;;;;18.23;4.40;;;11.80;99.90;;;;;;5047370;28;20747;-61
2023/01/06 13:18:08;;;;;;;25.20;6.53;;;11.60;99.90;;;;;;5063415;28;20477;-61
2023/01/06 13:20:40;;;;;;;23.77;6.40;;;11.70;99.90;;;;;;5050881;28;20497;-62
2023/01/06 13:23:25;;;;;;;21.47;6.37;;;11.60;99.90;;;;;;5050064;28;20475;-62
2023/01/06 13:26:00;;;;;;;17.00;6.00;;;;;;;;;;5044383;28;20491;-61
2023/01/06 13:28:36;;;;;;;15.77;4.47;;;11.60;99.90;;;;;;5050975;28;21017;-61